Time;durP1;ratioP1;P1;durP2;ratioP2;P2;SDS_P1;SDS_P2;PMS_P1;PMS_P2;Temp;Humidity;BMP_temperature;BMP_pressure;BME280_temperature;BME280_humidity;BME280_pressure;Samples;Min_cycle;Max_cycle;Signal;HPM_P1;HPM_P2
2022/08/08 00:00:52;;;;;;;;;;;25.50;55.90;;;;;;5047215;28;88942;-45
2022/08/08 00:03:28;;;;;;;;;;;25.50;55.90;;;;;;5051521;28;87114;-45
2022/08/08 00:06:04;;;;;;;;;;;25.50;55.90;;;;;;5048213;28;89364;-44
2022/08/08 00:08:35;;;;;;;;;;;25.50;56.00;;;;;;5048169;28;87038;-45
2022/08/08 00:11:01;;;;;;;;;;;25.50;56.00;;;;;;5048505;28;87522;-46
2022/08/08 00:16:39;;;;;;;;;;;25.40;55.90;;;;;;5047188;28;86979;-45
2022/08/08 00:19:13;;;;;;;;;;;25.40;55.90;;;;;;5048728;27;87324;-46
2022/08/08 00:21:41;;;;;;;;;;;25.40;56.00;;;;;;5044588;28;88220;-44
2022/08/08 00:24:13;;;;;;;;;;;25.40;56.60;;;;;;5044883;28;87107;-47
2022/08/08 00:26:40;;;;;;;;;;;25.40;56.00;;;;;;5047265;27;87908;-45
2022/08/08 00:29:05;;;;;;;;;;;25.30;56.00;;;;;;5045058;28;87078;-44
2022/08/08 00:31:33;;;;;;;;;;;25.30;55.90;;;;;;5044703;27;88917;-45
2022/08/08 00:37:06;;;;;;;;;;;25.30;55.90;;;;;;5043439;28;87055;-45
2022/08/08 00:39:39;;;;;;;;;;;25.30;56.00;;;;;;5044738;27;86980;-45
2022/08/08 00:42:08;;;;;;;;;;;25.30;56.00;;;;;;5044695;28;87208;-44
2022/08/08 00:44:37;;;;;;;;;;;25.30;56.00;;;;;;5045253;28;86381;-45
2022/08/08 00:47:02;;;;;;;;;;;25.30;56.00;;;;;;5044572;27;88677;-44
2022/08/08 00:49:28;;;;;;;;;;;25.30;56.00;;;;;;5047349;28;87082;-44
2022/08/08 00:51:56;;;;;;;;;;;25.20;55.90;;;;;;5044174;28;88382;-44
2022/08/08 00:54:25;;;;;;;;;;;25.20;56.00;;;;;;5044493;28;88147;-44
2022/08/08 00:57:08;;;;;;;;;;;25.20;56.00;;;;;;5044592;28;87143;-45
2022/08/08 00:59:53;;;;;;;;;;;25.20;56.00;;;;;;5044837;27;87453;-45
2022/08/08 01:02:37;;;;;;;;;;;25.20;56.10;;;;;;5044105;28;88852;-44
2022/08/08 01:05:11;;;;;;;;;;;25.20;56.10;;;;;;5044535;27;87022;-45
2022/08/08 01:07:39;;;;;;;;;;;25.20;56.10;;;;;;5044015;28;87007;-44
2022/08/08 01:10:08;;;;;;;;;;;25.20;56.10;;;;;;5044583;28;87016;-45
2022/08/08 01:12:35;;;;;;;;;;;25.10;56.00;;;;;;5047133;28;86979;-45
2022/08/08 01:15:19;;;;;;;;;;;25.10;56.00;;;;;;5043734;28;89303;-44
2022/08/08 01:18:04;;;;;;;;;;;25.10;56.00;;;;;;5043777;27;88081;-45
2022/08/08 01:20:39;;;;;;;;;;;25.10;56.00;;;;;;5044156;27;89997;-45
2022/08/08 01:23:04;;;;;;;;;;;25.10;56.00;;;;;;5043880;28;88078;-44
2022/08/08 01:25:36;;;;;;;;;;;25.00;56.00;;;;;;5044202;28;87089;-45
2022/08/08 01:28:10;;;;;;;;;;;25.00;55.90;;;;;;5043884;27;88968;-44
2022/08/08 01:30:51;;;;;;;;;;;25.00;55.90;;;;;;5043600;27;88164;-44
2022/08/08 01:33:39;;;;;;;;;;;25.00;55.90;;;;;;5043286;28;87560;-45
2022/08/08 01:36:24;;;;;;;;;;;25.00;56.60;;;;;;5040888;28;88059;-44
2022/08/08 01:38:49;;;;;;;;;;;25.00;56.00;;;;;;5043567;27;87181;-44
2022/08/08 01:41:30;;;;;;;;;;;25.00;56.00;;;;;;5044187;28;87649;-46
2022/08/08 01:43:58;;;;;;;;;;;25.00;56.00;;;;;;5042682;28;90353;-46
2022/08/08 01:46:42;;;;;;;;;;;24.90;56.60;;;;;;5043945;28;87063;-44
2022/08/08 01:49:20;;;;;;;;;;;24.90;56.00;;;;;;5044014;27;87368;-44
2022/08/08 01:52:04;;;;;;;;;;;24.90;56.00;;;;;;5043334;28;88275;-44
2022/08/08 01:54:39;;;;;;;;;;;24.90;56.00;;;;;;5043938;27;87178;-44
2022/08/08 01:57:07;;;;;;;;;;;24.80;56.00;;;;;;5046515;27;87849;-44
2022/08/08 01:59:33;;;;;;;;;;;24.80;56.00;;;;;;5043516;28;87479;-44
2022/08/08 02:01:58;;;;;;;;;;;24.80;56.00;;;;;;5043637;28;87411;-46
2022/08/08 02:04:39;;;;;;;;;;;24.80;56.00;;;;;;5043286;28;88622;-45
2022/08/08 02:07:24;;;;;;;;;;;24.80;56.00;;;;;;5043549;28;87043;-45
2022/08/08 02:09:57;;;;;;;;;;;24.80;55.90;;;;;;5042338;28;88106;-45
2022/08/08 02:12:25;;;;;;;;;;;24.80;56.00;;;;;;5042997;28;87241;-45
2022/08/08 02:14:55;;;;;;;;;;;24.80;56.00;;;;;;5043404;28;87047;-44
2022/08/08 02:17:24;;;;;;;;;;;24.70;55.90;;;;;;5043138;27;88853;-44
2022/08/08 02:19:59;;;;;;;;;;;24.70;55.90;;;;;;5045888;28;88180;-46
2022/08/08 02:22:31;;;;;;;;;;;24.70;55.90;;;;;;5043252;27;87373;-45
2022/08/08 02:24:59;;;;;;;;;;;24.70;56.00;;;;;;5042887;28;87981;-44
2022/08/08 02:27:42;;;;;;;;;;;24.60;55.90;;;;;;5043765;28;86383;-44
2022/08/08 02:30:15;;;;;;;;;;;24.60;56.00;;;;;;5043063;28;87030;-44
2022/08/08 02:32:47;;;;;;;;;;;24.60;56.00;;;;;;5042712;28;88588;-45
2022/08/08 02:35:24;;;;;;;;;;;24.60;56.00;;;;;;5042434;28;88006;-44
2022/08/08 02:37:58;;;;;;;;;;;24.60;56.00;;;;;;5043326;28;87401;-44
2022/08/08 02:40:27;;;;;;;;;;;24.60;56.60;;;;;;5042840;28;88164;-45
2022/08/08 02:43:11;;;;;;;;;;;24.60;56.00;;;;;;5045375;28;87370;-44
2022/08/08 02:45:48;;;;;;;;;;;24.60;56.00;;;;;;5042322;27;88002;-44
2022/08/08 02:48:25;;;;;;;;;;;24.60;56.00;;;;;;5042995;28;87126;-44
2022/08/08 02:50:53;;;;;;;;;;;24.50;55.90;;;;;;5043351;27;87473;-44
2022/08/08 02:53:19;;;;;;;;;;;24.50;55.90;;;;;;5043118;28;86489;-45
2022/08/08 02:55:47;;;;;;;;;;;24.50;55.90;;;;;;5042849;28;87115;-44
2022/08/08 02:58:31;;;;;;;;;;;24.50;56.00;;;;;;5042518;28;87026;-45
2022/08/08 03:01:00;;;;;;;;;;;24.50;56.00;;;;;;5041319;27;89077;-45
2022/08/08 03:03:28;;;;;;;;;;;24.50;56.00;;;;;;5042796;28;87116;-45
2022/08/08 03:05:53;;;;;;;;;;;24.40;55.90;;;;;;5045300;28;87398;-45
2022/08/08 03:08:19;;;;;;;;;;;24.40;56.00;;;;;;5042536;28;87087;-44
2022/08/08 03:10:59;;;;;;;;;;;24.40;55.90;;;;;;5042667;27;86828;-44
2022/08/08 03:13:31;;;;;;;;;;;24.40;55.90;;;;;;5042285;28;87301;-44
2022/08/08 03:16:15;;;;;;;;;;;24.40;55.90;;;;;;5042514;28;87154;-45
2022/08/08 03:18:50;;;;;;;;;;;24.40;55.90;;;;;;5043027;27;87179;-45
2022/08/08 03:21:15;;;;;;;;;;;24.30;55.90;;;;;;5040691;28;87434;-44
2022/08/08 03:23:41;;;;;;;;;;;24.30;55.90;;;;;;5042587;28;87132;-45
2022/08/08 03:26:06;;;;;;;;;;;24.30;55.90;;;;;;5041984;28;87905;-45
2022/08/08 03:28:36;;;;;;;;;;;24.30;55.90;;;;;;5045083;28;87970;-44
2022/08/08 03:33:16;;;;;;;;;;;24.30;56.00;;;;;;5042401;27;87818;-44
2022/08/08 03:33:47;;;;;;;;;;;24.30;55.90;;;;;;5041656;28;88767;-44
2022/08/08 03:36:14;;;;;;;;;;;24.30;55.90;;;;;;5042605;28;87092;-44
2022/08/08 03:38:39;;;;;;;;;;;24.30;55.90;;;;;;5042372;28;87444;-45
2022/08/08 03:41:05;;;;;;;;;;;24.30;55.90;;;;;;5042059;28;88280;-44
2022/08/08 03:43:30;;;;;;;;;;;24.20;55.90;;;;;;5043074;28;87212;-45
2022/08/08 03:45:56;;;;;;;;;;;24.20;55.80;;;;;;5042460;28;87064;-44
2022/08/08 03:48:21;;;;;;;;;;;24.20;55.90;;;;;;5041661;28;87930;-44
2022/08/08 03:50:48;;;;;;;;;;;24.20;55.80;;;;;;5044704;28;88102;-44
2022/08/08 03:53:14;;;;;;;;;;;24.20;55.80;;;;;;5041395;28;89317;-45
2022/08/08 03:55:40;;;;;;;;;;;24.20;55.90;;;;;;5043880;28;87117;-45
2022/08/08 03:58:06;;;;;;;;;;;24.10;55.80;;;;;;5045635;28;87821;-44
2022/08/08 04:00:32;;;;;;;;;;;24.10;55.90;;;;;;5044745;28;88110;-44
2022/08/08 04:02:59;;;;;;;;;;;24.10;55.80;;;;;;5045618;28;87486;-44
2022/08/08 04:05:29;;;;;;;;;;;24.10;55.90;;;;;;5045711;28;87415;-44
2022/08/08 04:07:55;;;;;;;;;;;24.10;55.80;;;;;;5045377;28;88776;-44
2022/08/08 04:10:20;;;;;;;;;;;24.10;55.90;;;;;;5048293;28;87018;-44
2022/08/08 04:12:46;;;;;;;;;;;24.10;55.90;;;;;;5045101;28;88173;-44
2022/08/08 04:15:11;;;;;;;;;;;24.00;55.90;;;;;;5044828;28;88035;-44
2022/08/08 04:17:37;;;;;;;;;;;24.00;55.90;;;;;;5045319;27;88183;-46
2022/08/08 04:20:03;;;;;;;;;;;24.00;55.80;;;;;;5045226;28;87924;-45
2022/08/08 04:22:29;;;;;;;;;;;24.00;55.90;;;;;;5045013;28;87042;-44
2022/08/08 04:24:54;;;;;;;;;;;24.00;55.90;;;;;;5045129;27;88656;-44
2022/08/08 04:27:20;;;;;;;;;;;24.00;55.90;;;;;;5045040;28;87979;-44
2022/08/08 04:29:46;;;;;;;;;;;24.00;55.90;;;;;;5045063;28;87145;-44
2022/08/08 04:32:13;;;;;;;;;;;23.90;55.90;;;;;;5047948;28;87339;-45
2022/08/08 04:34:39;;;;;;;;;;;23.90;55.90;;;;;;5045056;28;87088;-45
2022/08/08 04:37:05;;;;;;;;;;;23.90;55.90;;;;;;5045165;28;87862;-45
2022/08/08 04:39:30;;;;;;;;;;;23.90;55.90;;;;;;5044008;28;89006;-44
2022/08/08 04:41:56;;;;;;;;;;;23.90;55.90;;;;;;5045241;28;87089;-45
2022/08/08 04:44:21;;;;;;;;;;;23.90;56.00;;;;;;5044970;27;87376;-44
2022/08/08 04:46:47;;;;;;;;;;;23.90;55.90;;;;;;5044523;28;88326;-45
2022/08/08 04:49:12;;;;;;;;;;;23.90;56.00;;;;;;5044927;28;87163;-44
2022/08/08 04:51:38;;;;;;;;;;;23.80;56.00;;;;;;5044870;28;87315;-44
2022/08/08 04:54:03;;;;;;;;;;;23.80;56.00;;;;;;5047397;28;88142;-44
2022/08/08 04:56:29;;;;;;;;;;;23.80;56.00;;;;;;5045591;28;87487;-44
2022/08/08 04:58:54;;;;;;;;;;;23.80;56.00;;;;;;5044095;28;89261;-44
2022/08/08 05:01:20;;;;;;;;;;;23.80;56.10;;;;;;5044456;28;87188;-44
2022/08/08 05:03:45;;;;;;;;;;;23.80;56.10;;;;;;5044131;28;88784;-44
2022/08/08 05:06:11;;;;;;;;;;;23.80;56.00;;;;;;5043937;27;88023;-44
2022/08/08 05:08:36;;;;;;;;;;;23.80;56.00;;;;;;5044418;28;87413;-44
2022/08/08 05:11:02;;;;;;;;;;;23.70;56.00;;;;;;5044544;28;87616;-44
2022/08/08 05:13:28;;;;;;;;;;;23.80;56.10;;;;;;5044224;28;87949;-44
2022/08/08 05:15:53;;;;;;;;;;;23.80;56.10;;;;;;5047433;28;87086;-44
2022/08/08 05:18:19;;;;;;;;;;;23.70;56.10;;;;;;5043884;28;88113;-46
2022/08/08 05:20:44;;;;;;;;;;;23.80;56.10;;;;;;5044623;28;86436;-44
2022/08/08 05:23:10;;;;;;;;;;;23.70;56.10;;;;;;5044235;28;86653;-45
2022/08/08 05:25:35;;;;;;;;;;;23.70;56.20;;;;;;5043997;28;87981;-45
2022/08/08 05:28:00;;;;;;;;;;;23.70;56.20;;;;;;5043890;28;87905;-44
2022/08/08 05:30:26;;;;;;;;;;;23.70;56.20;;;;;;5044403;28;88353;-45
2022/08/08 05:32:52;;;;;;;;;;;23.70;56.20;;;;;;5043544;28;88054;-45
2022/08/08 05:35:20;;;;;;;;;;;23.70;56.30;;;;;;5044080;28;86993;-44
2022/08/08 05:37:47;;;;;;;;;;;23.70;56.30;;;;;;5046574;28;87412;-45
2022/08/08 05:40:12;;;;;;;;;;;23.70;56.30;;;;;;5043879;28;87072;-44
2022/08/08 05:42:40;;;;;;;;;;;23.70;56.70;;;;;;5043773;27;89071;-46
2022/08/08 05:45:06;;;;;;;;;;;23.70;56.40;;;;;;5044002;28;87394;-44
2022/08/08 05:47:33;;;;;;;;;;;23.70;56.30;;;;;;5043765;27;87137;-44
2022/08/08 05:50:00;;;;;;;;;;;23.70;56.40;;;;;;5044096;27;86973;-45
2022/08/08 05:52:27;;;;;;;;;;;23.70;56.40;;;;;;5042807;28;89079;-44
2022/08/08 05:54:52;;;;;;;;;;;23.70;56.40;;;;;;5043746;28;87000;-45
2022/08/08 05:57:21;;;;;;;;;;;23.70;56.50;;;;;;5043753;28;87368;-44
2022/08/08 05:59:48;;;;;;;;;;;23.70;56.50;;;;;;5046058;28;87136;-44
2022/08/08 06:05:08;;;;;;;;;;;23.70;56.50;;;;;;5043460;28;87217;-45
2022/08/08 06:07:34;;;;;;;;;;;23.70;56.50;;;;;;5043413;28;87317;-44
2022/08/08 06:10:01;;;;;;;;;;;23.70;56.50;;;;;;5044241;27;87246;-44
2022/08/08 06:12:27;;;;;;;;;;;23.60;56.50;;;;;;5042992;28;87702;-44
2022/08/08 06:14:52;;;;;;;;;;;23.70;56.50;;;;;;5043350;28;87085;-45
2022/08/08 06:17:20;;;;;;;;;;;23.70;56.50;;;;;;5042345;27;88017;-44
2022/08/08 06:19:46;;;;;;;;;;;23.70;56.60;;;;;;5045513;28;87456;-44
2022/08/08 06:22:12;;;;;;;;;;;23.70;56.60;;;;;;5043440;27;87384;-44
2022/08/08 06:24:37;;;;;;;;;;;23.70;56.60;;;;;;5043029;28;88114;-44
2022/08/08 06:27:03;;;;;;;;;;;23.70;56.60;;;;;;5043271;28;87107;-45
2022/08/08 06:29:36;;;;;;;;;;;23.70;56.70;;;;;;5043131;27;87523;-45
2022/08/08 06:32:03;;;;;;;;;;;23.70;56.80;;;;;;5042808;28;87885;-44
2022/08/08 06:34:35;;;;;;;;;;;23.70;56.80;;;;;;5043724;28;86374;-44
2022/08/08 06:37:01;;;;;;;;;;;23.70;56.80;;;;;;5043189;27;88242;-44
2022/08/08 06:39:28;;;;;;;;;;;23.60;56.80;;;;;;5042574;28;89564;-44
2022/08/08 06:41:53;;;;;;;;;;;23.70;56.80;;;;;;5045154;28;88034;-45
2022/08/08 06:44:20;;;;;;;;;;;23.70;56.90;;;;;;5042503;28;88046;-44
2022/08/08 06:46:46;;;;;;;;;;;23.70;56.90;;;;;;5042998;28;86937;-45
2022/08/08 06:49:11;;;;;;;;;;;23.70;57.00;;;;;;5042826;28;87440;-45
2022/08/08 06:51:37;;;;;;;;;;;23.70;57.00;;;;;;5042554;28;88124;-46
2022/08/08 06:54:02;;;;;;;;;;;23.70;57.10;;;;;;5042841;28;86986;-44
2022/08/08 06:56:31;;;;;;;;;;;23.70;57.10;;;;;;5042801;28;87368;-44
2022/08/08 06:58:56;;;;;;;;;;;23.70;57.10;;;;;;5042730;28;88593;-44
2022/08/08 07:01:23;;;;;;;;;;;23.70;57.20;;;;;;5042329;28;87228;-45
2022/08/08 07:03:54;;;;;;;;;;;23.70;57.20;;;;;;5045304;27;86986;-47
2022/08/08 07:06:23;;;;;;;;;;;23.70;57.30;;;;;;5042034;28;87968;-44
2022/08/08 07:09:06;;;;;;;;;;;23.70;57.30;;;;;;5042376;27;89992;-45
2022/08/08 07:11:33;;;;;;;;;;;23.70;57.30;;;;;;5042441;28;87261;-44
2022/08/08 07:14:00;;;;;;;;;;;23.70;57.20;;;;;;5041182;28;87112;-44
2022/08/08 07:16:45;;;;;;;;;;;23.70;57.10;;;;;;5042357;27;88768;-45
2022/08/08 07:19:13;;;;;;;;;;;23.70;57.00;;;;;;5042246;27;88130;-45
2022/08/08 07:21:49;;;;;;;;;;;23.80;57.00;;;;;;5042583;28;87042;-45
2022/08/08 07:24:25;;;;;;;;;;;23.70;57.00;;;;;;5043236;27;87115;-45
2022/08/08 07:26:51;;;;;;;;;;;23.70;56.80;;;;;;5045084;28;87909;-44
2022/08/08 07:29:17;;;;;;;;;;;23.70;56.80;;;;;;5043421;27;87399;-44
2022/08/08 07:31:43;;;;;;;;;;;23.80;56.80;;;;;;5045083;28;89156;-45
2022/08/08 07:34:09;;;;;;;;;;;23.80;56.80;;;;;;5046082;28;87592;-45
2022/08/08 07:36:34;;;;;;;;;;;23.80;56.80;;;;;;5046126;28;87648;-45
2022/08/08 07:39:00;;;;;;;;;;;23.80;56.70;;;;;;5045303;27;88392;-44
2022/08/08 07:41:26;;;;;;;;;;;23.80;56.70;;;;;;5045643;28;87203;-44
2022/08/08 07:43:54;;;;;;;;;;;23.70;56.70;;;;;;5045842;27;87563;-44
2022/08/08 07:46:20;;;;;;;;;;;23.80;56.70;;;;;;5045307;28;88056;-45
2022/08/08 07:48:45;;;;;;;;;;;23.80;56.70;;;;;;5048986;28;86233;-45
2022/08/08 07:51:11;;;;;;;;;;;23.80;56.70;;;;;;5045362;28;88386;-45
2022/08/08 07:53:37;;;;;;;;;;;23.80;56.60;;;;;;5045736;28;87090;-45
2022/08/08 07:56:03;;;;;;;;;;;23.80;56.50;;;;;;5045215;27;87978;-46
2022/08/08 07:58:36;;;;;;;;;;;23.80;56.60;;;;;;5044936;28;89373;-46
2022/08/08 08:01:06;;;;;;;;;;;23.80;56.50;;;;;;5045257;28;88392;-45
2022/08/08 08:03:35;;;;;;;;;;;23.80;56.50;;;;;;5045198;27;87453;-45
2022/08/08 08:06:03;;;;;;;;;;;23.80;56.40;;;;;;5045262;28;88003;-44
2022/08/08 08:08:34;;;;;;;;;;;23.80;56.40;;;;;;5045020;28;87126;-45
2022/08/08 08:11:00;;;;;;;;;;;23.80;56.40;;;;;;5048062;27;86791;-45
2022/08/08 08:13:28;;;;;;;;;;;23.90;56.30;;;;;;5045861;28;86329;-45
2022/08/08 08:16:02;;;;;;;;;;;23.80;56.10;;;;;;5045348;28;87013;-45
2022/08/08 08:18:33;;;;;;;;;;;23.90;56.20;;;;;;5044768;28;88290;-44
2022/08/08 08:21:01;;;;;;;;;;;23.90;56.10;;;;;;5044521;28;87995;-45
2022/08/08 08:23:27;;;;;;;;;;;23.90;56.00;;;;;;5045015;27;89255;-45
2022/08/08 08:25:52;;;;;;;;;;;23.90;55.90;;;;;;5045018;28;87608;-44
2022/08/08 08:28:20;;;;;;;;;;;23.90;55.70;;;;;;5045218;28;87132;-45
2022/08/08 08:30:45;;;;;;;;;;;23.90;55.90;;;;;;5047417;27;89160;-46
2022/08/08 08:33:11;;;;;;;;;;;23.90;55.90;;;;;;5044826;28;87351;-44
2022/08/08 08:35:36;;;;;;;;;;;23.90;55.70;;;;;;5045098;28;87003;-45
2022/08/08 08:38:02;;;;;;;;;;;23.90;56.10;;;;;;5045365;28;87093;-45
2022/08/08 08:40:29;;;;;;;;;;;23.90;55.70;;;;;;5044384;27;87100;-45
2022/08/08 08:42:55;;;;;;;;;;;23.90;55.50;;;;;;5044905;27;87393;-45
2022/08/08 08:45:20;;;;;;;;;;;24.00;55.70;;;;;;5043559;28;89256;-47
2022/08/08 08:47:47;;;;;;;;;;;24.00;55.60;;;;;;5044967;28;87403;-46
2022/08/08 08:50:12;;;;;;;;;;;23.90;55.50;;;;;;5044938;27;87059;-45
2022/08/08 08:52:41;;;;;;;;;;;24.00;55.50;;;;;;5047389;28;88104;-45
2022/08/08 08:55:08;;;;;;;;;;;24.00;55.60;;;;;;5044534;28;86963;-45
2022/08/08 08:57:33;;;;;;;;;;;24.00;55.50;;;;;;5044395;28;88101;-45
2022/08/08 09:00:00;;;;;;;;;;;24.00;55.50;;;;;;5044156;28;87135;-45
2022/08/08 09:02:26;;;;;;;;;;;24.00;55.40;;;;;;5045226;28;87586;-45
2022/08/08 09:04:54;;;;;;;;;;;24.00;55.50;;;;;;5044130;28;89213;-44
2022/08/08 09:07:22;;;;;;;;;;;24.00;55.50;;;;;;5044365;28;87076;-45
2022/08/08 09:09:49;;;;;;;;;;;24.00;55.40;;;;;;5043695;27;87948;-45
2022/08/08 09:12:16;;;;;;;;;;;24.00;55.40;;;;;;5044023;28;89492;-45
2022/08/08 09:14:43;;;;;;;;;;;24.10;55.40;;;;;;5047525;28;87175;-46
2022/08/08 09:17:09;;;;;;;;;;;24.10;55.40;;;;;;5044065;28;87885;-45
2022/08/08 09:19:34;;;;;;;;;;;24.10;55.30;;;;;;5044537;28;87010;-45
2022/08/08 09:22:00;;;;;;;;;;;24.10;55.40;;;;;;5044552;28;87771;-44
2022/08/08 09:24:26;;;;;;;;;;;24.20;55.30;;;;;;5043856;28;88113;-45
2022/08/08 09:26:58;;;;;;;;;;;24.10;55.20;;;;;;5044905;28;86258;-45
2022/08/08 09:29:24;;;;;;;;;;;24.10;54.80;;;;;;5044120;27;86871;-45
2022/08/08 09:31:52;;;;;;;;;;;24.20;55.00;;;;;;5043947;28;87944;-45
2022/08/08 09:34:18;;;;;;;;;;;24.20;55.10;;;;;;5043232;28;87982;-45
2022/08/08 09:36:45;;;;;;;;;;;24.20;55.00;;;;;;5046763;27;88293;-44
2022/08/08 09:39:11;;;;;;;;;;;24.20;55.00;;;;;;5043871;28;87215;-45
2022/08/08 09:41:37;;;;;;;;;;;24.20;55.00;;;;;;5043970;27;87311;-45
2022/08/08 09:44:26;;;;;;;;;;;24.20;55.00;;;;;;5043554;28;88003;-46
2022/08/08 09:46:54;;;;;;;;;;;24.30;54.80;;;;;;5023159;28;87227;-46
2022/08/08 09:49:20;;;;;;;;;;;24.30;54.70;;;;;;5043804;28;87518;-45
2022/08/08 09:51:48;;;;;;;;;;;24.30;54.90;;;;;;5043878;27;87375;-45
2022/08/08 09:54:15;;;;;;;;;;;24.30;54.80;;;;;;5042582;28;87510;-45
2022/08/08 09:56:45;;;;;;;;;;;24.30;54.80;;;;;;5043754;28;87628;-45
2022/08/08 09:59:12;;;;;;;;;;;24.30;54.70;;;;;;5045540;28;88099;-45
2022/08/08 10:01:37;;;;;;;;;;;24.30;53.80;;;;;;5043230;28;88401;-45
2022/08/08 10:04:06;;;;;;;;;;;24.30;54.20;;;;;;5043312;28;87865;-44
2022/08/08 10:06:32;;;;;;;;;;;24.40;54.40;;;;;;5043385;28;87052;-44
2022/08/08 10:08:57;;;;;;;;;;;24.40;54.30;;;;;;5042938;27;87043;-45
2022/08/08 10:11:23;;;;;;;;;;;24.40;54.40;;;;;;5043307;28;87853;-45
2022/08/08 10:13:57;;;;;;;;;;;24.40;54.30;;;;;;5043217;28;87169;-45
2022/08/08 10:16:23;;;;;;;;;;;24.40;54.30;;;;;;5043762;27;88936;-46
2022/08/08 10:18:48;;;;;;;;;;;24.40;54.40;;;;;;5042787;28;88595;-45
2022/08/08 10:21:18;;;;;;;;;;;24.50;54.40;;;;;;5046083;28;86931;-45
2022/08/08 10:23:47;;;;;;;;;;;24.50;54.30;;;;;;5042148;28;89172;-47
2022/08/08 10:26:21;;;;;;;;;;;24.50;54.30;;;;;;5043280;28;86901;-46
2022/08/08 10:28:59;;;;;;;;;;;24.60;54.20;;;;;;5043160;27;89065;-46
2022/08/08 10:34:13;;;;;;;;;;;24.50;54.00;;;;;;5043207;28;86896;-45
2022/08/08 10:36:40;;;;;;;;;;;24.60;54.10;;;;;;5043295;27;87457;-46
2022/08/08 10:39:07;;;;;;;;;;;24.60;53.90;;;;;;5042653;28;88005;-47
2022/08/08 10:41:35;;;;;;;;;;;24.60;53.80;;;;;;5046401;28;86328;-45
2022/08/08 10:44:01;;;;;;;;;;;24.70;53.10;;;;;;5042756;28;87994;-45
2022/08/08 10:46:26;;;;;;;;;;;24.70;53.60;;;;;;5042823;28;87071;-46
2022/08/08 10:48:53;;;;;;;;;;;24.70;53.50;;;;;;5042312;27;89075;-45
2022/08/08 10:51:19;;;;;;;;;;;24.70;53.70;;;;;;5042858;28;88046;-45
2022/08/08 10:53:49;;;;;;;;;;;24.70;53.60;;;;;;5042736;28;87192;-46
2022/08/08 10:56:16;;;;;;;;;;;24.80;53.50;;;;;;5042621;27;89336;-46
2022/08/08 10:58:41;;;;;;;;;;;24.80;53.50;;;;;;5042479;28;88588;-45
2022/08/08 11:01:08;;;;;;;;;;;24.80;53.40;;;;;;5042156;28;87174;-46
2022/08/08 11:03:41;;;;;;;;;;;24.80;53.30;;;;;;5044859;27;87788;-46
2022/08/08 11:06:06;;;;;;;;;;;24.80;53.40;;;;;;5043231;28;86473;-46
2022/08/08 11:08:32;;;;;;;;;;;24.90;53.50;;;;;;5042722;27;87124;-47
2022/08/08 11:11:01;;;;;;;;;;;24.90;53.30;;;;;;5042192;28;89001;-45
2022/08/08 11:13:27;;;;;;;;;;;24.90;53.30;;;;;;5041718;28;87932;-45
2022/08/08 11:15:53;;;;;;;;;;;24.90;53.20;;;;;;5042554;28;88215;-44
2022/08/08 11:18:19;;;;;;;;;;;25.00;53.10;;;;;;5042616;28;88342;-45
2022/08/08 11:20:46;;;;;;;;;;;25.00;53.20;;;;;;5042813;28;87073;-46
2022/08/08 11:23:13;;;;;;;;;;;25.00;53.10;;;;;;5042575;28;88337;-47
2022/08/08 11:25:39;;;;;;;;;;;25.00;53.00;;;;;;5045124;28;87594;-45
2022/08/08 11:28:07;;;;;;;;;;;25.00;52.90;;;;;;5042480;27;87347;-48
2022/08/08 11:30:33;;;;;;;;;;;25.00;52.90;;;;;;5042000;28;88870;-46
2022/08/08 11:33:01;;;;;;;;;;;25.00;53.00;;;;;;5042499;28;87133;-46
2022/08/08 11:35:27;;;;;;;;;;;25.10;52.90;;;;;;5042248;27;88901;-46
2022/08/08 11:37:53;;;;;;;;;;;25.10;52.20;;;;;;5041390;28;89077;-47
2022/08/08 11:40:19;;;;;;;;;;;25.20;52.80;;;;;;5042249;28;87080;-45
2022/08/08 11:42:45;;;;;;;;;;;25.20;52.70;;;;;;5042424;27;87378;-45
2022/08/08 11:45:11;;;;;;;;;;;25.20;52.80;;;;;;5041540;28;89880;-45
2022/08/08 11:47:37;;;;;;;;;;;25.20;52.70;;;;;;5045107;28;87070;-45
2022/08/08 11:50:10;;;;;;;;;;;25.20;52.60;;;;;;5041955;28;88246;-45
2022/08/08 11:52:36;;;;;;;;;;;25.30;52.40;;;;;;5041949;28;87067;-45
2022/08/08 11:55:13;;;;;;;;;;;25.30;52.50;;;;;;5042835;27;86959;-45
2022/08/08 11:57:38;;;;;;;;;;;25.30;52.00;;;;;;5041610;28;88161;-47
2022/08/08 12:00:06;;;;;;;;;;;25.30;52.60;;;;;;5041492;28;87165;-46
2022/08/08 12:02:31;;;;;;;;;;;25.30;52.50;;;;;;5041701;27;87911;-45
2022/08/08 12:05:05;;;;;;;;;;;25.30;52.60;;;;;;5041621;28;90271;-46
2022/08/08 12:07:31;;;;;;;;;;;25.30;51.70;;;;;;5041740;28;87056;-47
2022/08/08 12:09:57;;;;;;;;;;;25.30;52.50;;;;;;5044544;27;87430;-45
2022/08/08 12:12:24;;;;;;;;;;;25.30;52.20;;;;;;5041761;28;87208;-45
2022/08/08 12:15:02;;;;;;;;;;;25.30;52.30;;;;;;5041702;27;88873;-46
2022/08/08 12:17:34;;;;;;;;;;;25.30;52.40;;;;;;5044124;28;88197;-46
2022/08/08 12:20:03;;;;;;;;;;;25.40;52.40;;;;;;5045546;28;86312;-47
2022/08/08 12:22:30;;;;;;;;;;;25.40;52.30;;;;;;5045048;27;88811;-45
2022/08/08 12:24:56;;;;;;;;;;;25.40;52.20;;;;;;5044625;28;89400;-45
2022/08/08 12:27:21;;;;;;;;;;;25.40;52.10;;;;;;5044537;28;88091;-45
2022/08/08 12:29:55;;;;;;;;;;;25.40;52.30;;;;;;5047876;28;88393;-46
2022/08/08 12:32:20;;;;;;;;;;;25.40;52.10;;;;;;5045111;28;87451;-46
2022/08/08 12:34:51;;;;;;;;;;;25.40;52.10;;;;;;5045173;28;87208;-46
2022/08/08 12:37:20;;;;;;;;;;;25.50;52.10;;;;;;5044309;28;89381;-46
2022/08/08 12:39:46;;;;;;;;;;;25.50;52.10;;;;;;5045116;28;87228;-46
2022/08/08 12:42:11;;;;;;;;;;;25.50;52.00;;;;;;5044944;27;87410;-46
2022/08/08 12:44:39;;;;;;;;;;;25.60;52.00;;;;;;5045189;28;87258;-45
2022/08/08 12:47:05;;;;;;;;;;;25.60;52.00;;;;;;5044801;28;87118;-45
2022/08/08 12:49:32;;;;;;;;;;;25.60;52.10;;;;;;5045035;27;87417;-45
2022/08/08 12:51:58;;;;;;;;;;;25.60;52.10;;;;;;5046476;28;88930;-45
2022/08/08 12:54:35;;;;;;;;;;;25.60;52.10;;;;;;5044727;27;90064;-45
2022/08/08 12:57:10;;;;;;;;;;;25.60;52.10;;;;;;5044551;28;89635;-45
2022/08/08 12:59:49;;;;;;;;;;;25.60;51.90;;;;;;5044886;28;86958;-45
2022/08/08 13:02:26;;;;;;;;;;;25.60;51.90;;;;;;5044877;28;87016;-45
2022/08/08 13:04:52;;;;;;;;;;;25.60;51.80;;;;;;5044132;28;89436;-46
2022/08/08 13:07:18;;;;;;;;;;;25.60;51.80;;;;;;5044695;28;87168;-45
2022/08/08 13:09:57;;;;;;;;;;;25.60;51.80;;;;;;5044904;27;87182;-46
2022/08/08 13:12:22;;;;;;;;;;;25.60;51.90;;;;;;5044235;28;87999;-46
2022/08/08 13:14:49;;;;;;;;;;;25.70;52.10;;;;;;5047410;28;86913;-45
2022/08/08 13:17:15;;;;;;;;;;;25.70;52.10;;;;;;5043368;28;89035;-46
2022/08/08 13:19:41;;;;;;;;;;;25.70;52.20;;;;;;5044337;28;87081;-46
2022/08/08 13:22:07;;;;;;;;;;;25.70;52.30;;;;;;5044365;27;88057;-45
2022/08/08 13:24:39;;;;;;;;;;;25.70;52.10;;;;;;5044179;28;88431;-45
2022/08/08 13:27:31;;;;;;;;;;;25.80;52.00;;;;;;5043969;27;87015;-45
2022/08/08 13:30:01;;;;;;;;;;;25.80;52.00;;;;;;5041926;27;87333;-46
2022/08/08 13:32:28;;;;;;;;;;;25.80;52.10;;;;;;5043481;28;89320;-47
2022/08/08 13:34:58;;;;;;;;;;;25.90;52.10;;;;;;5044513;28;86249;-45
2022/08/08 13:37:24;;;;;;;;;;;25.90;51.90;;;;;;5046509;28;88277;-45
2022/08/08 13:39:51;;;;;;;;;;;25.90;51.80;;;;;;5043828;28;87089;-46
2022/08/08 13:42:17;;;;;;;;;;;25.90;51.80;;;;;;5043376;28;88622;-45
2022/08/08 13:44:42;;;;;;;;;;;25.90;51.70;;;;;;5043787;28;88047;-47
2022/08/08 13:47:13;;;;;;;;;;;26.00;51.70;;;;;;5044038;28;87620;-45
2022/08/08 13:49:39;;;;;;;;;;;26.00;51.70;;;;;;5044159;27;87311;-45
2022/08/08 13:52:06;;;;;;;;;;;26.00;51.70;;;;;;5043690;28;87979;-45
2022/08/08 13:54:32;;;;;;;;;;;26.10;51.90;;;;;;5043845;28;87078;-45
2022/08/08 13:56:58;;;;;;;;;;;26.10;51.90;;;;;;5043765;27;87821;-46
2022/08/08 13:59:27;;;;;;;;;;;26.10;52.00;;;;;;5046924;28;87285;-45
2022/08/08 14:01:53;;;;;;;;;;;26.10;52.00;;;;;;5043498;27;87014;-45
2022/08/08 14:04:20;;;;;;;;;;;26.10;52.00;;;;;;5043193;28;88322;-45
2022/08/08 14:06:45;;;;;;;;;;;26.10;51.90;;;;;;5043206;28;88039;-45
2022/08/08 14:09:11;;;;;;;;;;;26.10;51.90;;;;;;5043621;28;88648;-46
2022/08/08 14:11:37;;;;;;;;;;;26.00;51.90;;;;;;5043130;28;89353;-45
2022/08/08 14:14:02;;;;;;;;;;;26.00;51.90;;;;;;5043682;28;87590;-45
2022/08/08 14:16:28;;;;;;;;;;;26.10;51.80;;;;;;5043662;28;87323;-45
2022/08/08 14:18:58;;;;;;;;;;;26.00;51.70;;;;;;5043073;28;88170;-46
2022/08/08 14:21:39;;;;;;;;;;;26.00;51.60;;;;;;5046168;28;87100;-45
2022/08/08 14:24:05;;;;;;;;;;;26.10;51.60;;;;;;5043392;28;88307;-45
2022/08/08 14:26:31;;;;;;;;;;;26.10;51.60;;;;;;5043519;28;86993;-45
2022/08/08 14:28:57;;;;;;;;;;;26.10;51.60;;;;;;5043329;27;86975;-45
2022/08/08 14:31:23;;;;;;;;;;;26.10;51.50;;;;;;5042253;28;88497;-44
2022/08/08 14:33:50;;;;;;;;;;;26.10;51.50;;;;;;5042930;28;87006;-46
2022/08/08 14:36:15;;;;;;;;;;;26.10;51.70;;;;;;5042954;27;89051;-45